Darstellungsparameter: Aktuell verwendete Einstellungen:
Skalierung der Graphiken ... ?
xyx+y,   Skalierungsfaktor:      Skalierung: Modus: x, Faktor: 1
Darstellungszeitraum ... ?
Vom - - bis: - -   Zeitraum: 18.07.2019 - 18.07.2019
Min/Max/Avg-Anzeige ... ?
Zeige MMA aktuell
Zeige MMA Monat
Zeige MMA alles
Zeige --A aktuell
Zeige --A Monat
Zeige --A alles
Keine MMA-Anzeige
MMA:
Keine MMA-Graphiken
MMA-Basis: 18.07.2019 - 18.07.2019
Quicknavigation für Darstellung... ?
Tage:      1T, 2T, 3T, 5T -1T -2T -3T -5T +1T +2T +3T +5T
Wochen: 1W, 2W, 3W -1W -2W -3W +1W +2W +3W
Monate: 1M, 3M, 6M -1M -3M -6M +1M +3M +6M
Jahre:    1J, 3J, 5J, 10J -1J -3J -5J -10J +1J +3J +5J +10J
Nutze für die Darstellung ... ?
Originaldaten oder Mittelwerte auf ...
Stundenbasis Tagesbasis Wochenbasis
Monatsbasis Jahresbasis      Datenbasis: Original-Daten
Darstellen als:
Statistik (Auto) Statistik J:M      Darstellung:
Zur Graphik,    zurück zur Übersicht aller Sensoren.
 
Tabellarische Datenbersicht: ?
 
Sensor: Nr:Datum:Temp:Feuchte:Taupunkt:
Aussen-T/F 1 18-07-2019 00:00:00 15.6 C 85 % 13.09 C
2 18-07-2019 00:05:00 15.6 C 85 % 13.09 C
3 18-07-2019 00:10:00 15.5 C 86 % 13.17 C
4 18-07-2019 00:15:00 15.4 C 86 % 13.07 C
5 18-07-2019 00:20:00 15.4 C 86 % 13.07 C
6 18-07-2019 00:25:00 15.3 C 86 % 12.97 C
7 18-07-2019 00:30:00 15.3 C 86 % 12.97 C
8 18-07-2019 00:35:00 15.2 C 86 % 12.88 C
9 18-07-2019 00:40:00 15.2 C 86 % 12.88 C
10 18-07-2019 00:45:00 15.1 C 87 % 12.95 C
11 18-07-2019 00:50:00 15 C 87 % 12.86 C
12 18-07-2019 00:55:00 14.9 C 87 % 12.76 C
13 18-07-2019 01:00:00 14.8 C 87 % 12.66 C
14 18-07-2019 01:05:00 14.7 C 88 % 12.73 C
15 18-07-2019 01:10:00 14.7 C 88 % 12.73 C
16 18-07-2019 01:15:00 14.6 C 88 % 12.64 C
17 18-07-2019 01:20:00 14.4 C 88 % 12.44 C
18 18-07-2019 01:25:00 14.4 C 88 % 12.44 C
19 18-07-2019 01:30:00 14.3 C 88 % 12.34 C
20 18-07-2019 01:35:00 14.1 C 89 % 12.32 C
21 18-07-2019 01:40:00 14 C 89 % 12.22 C
22 18-07-2019 01:45:00 13.9 C 89 % 12.12 C
23 18-07-2019 01:50:00 13.8 C 90 % 12.19 C
24 18-07-2019 01:55:00 13.8 C 90 % 12.19 C
25 18-07-2019 02:00:00 13.8 C 90 % 12.19 C
Sensor: Nr:Datum:Temp:Feuchte:Taupunkt:
Aussen-T/F 26 18-07-2019 02:05:00 13.8 C 91 % 12.36 C
27 18-07-2019 02:10:00 13.7 C 91 % 12.26 C
28 18-07-2019 02:15:00 13.7 C 91 % 12.26 C
29 18-07-2019 02:20:00 13.7 C 91 % 12.26 C
30 18-07-2019 02:25:00 13.7 C 91 % 12.26 C
31 18-07-2019 02:30:00 13.6 C 91 % 12.16 C
32 18-07-2019 02:35:00 13.6 C 91 % 12.16 C
33 18-07-2019 02:40:00 13.7 C 92 % 12.42 C
34 18-07-2019 02:45:00 13.7 C 92 % 12.42 C
35 18-07-2019 02:50:00 13.7 C 92 % 12.42 C
36 18-07-2019 02:55:00 13.6 C 92 % 12.33 C
37 18-07-2019 03:00:00 13.6 C 92 % 12.33 C
38 18-07-2019 03:05:00 13.6 C 92 % 12.33 C
39 18-07-2019 03:10:00 13.5 C 92 % 12.23 C
40 18-07-2019 03:15:00 13.5 C 92 % 12.23 C
41 18-07-2019 03:20:00 13.5 C 92 % 12.23 C
42 18-07-2019 03:25:00 13.4 C 92 % 12.13 C
43 18-07-2019 03:30:00 13.4 C 92 % 12.13 C
44 18-07-2019 03:35:00 13.4 C 92 % 12.13 C
45 18-07-2019 03:40:00 13.4 C 92 % 12.13 C
46 18-07-2019 03:45:00 13.4 C 93 % 12.29 C
47 18-07-2019 03:50:00 13.4 C 93 % 12.29 C
48 18-07-2019 03:55:00 13.4 C 93 % 12.29 C
49 18-07-2019 04:00:00 13.4 C 93 % 12.29 C
50 18-07-2019 04:05:00 13.4 C 93 % 12.29 C
Sensor: Nr:Datum:Temp:Feuchte:Taupunkt:
Aussen-T/F 51 18-07-2019 04:10:00 13.4 C 93 % 12.29 C
52 18-07-2019 04:15:00 13.4 C 93 % 12.29 C
53 18-07-2019 04:20:00 13.3 C 93 % 12.19 C
54 18-07-2019 04:25:00 13.3 C 93 % 12.19 C
55 18-07-2019 04:30:00 13.3 C 93 % 12.19 C
56 18-07-2019 04:35:00 13.2 C 93 % 12.09 C
57 18-07-2019 04:40:00 13.2 C 93 % 12.09 C
58 18-07-2019 04:45:00 13.1 C 93 % 11.99 C
59 18-07-2019 04:50:00 13 C 92 % 11.73 C
60 18-07-2019 04:55:00 12.9 C 93 % 11.8 C
61 18-07-2019 05:00:00 12.9 C 93 % 11.8 C
62 18-07-2019 05:05:00 12.8 C 93 % 11.7 C
63 18-07-2019 05:10:00 12.8 C 93 % 11.7 C
64 18-07-2019 05:15:00 12.8 C 93 % 11.7 C
65 18-07-2019 05:20:00 12.8 C 93 % 11.7 C
66 18-07-2019 05:25:00 12.7 C 93 % 11.6 C
67 18-07-2019 05:30:00 12.7 C 93 % 11.6 C
68 18-07-2019 05:35:00 12.6 C 93 % 11.5 C
69 18-07-2019 05:40:00 12.6 C 93 % 11.5 C
70 18-07-2019 05:45:00 12.5 C 93 % 11.4 C
71 18-07-2019 05:50:00 12.5 C 93 % 11.4 C
72 18-07-2019 05:55:00 12.4 C 94 % 11.46 C
73 18-07-2019 06:00:00 12.4 C 94 % 11.46 C
74 18-07-2019 06:05:00 12.4 C 94 % 11.46 C
75 18-07-2019 06:10:00 12.4 C 94 % 11.46 C
Sensor: Nr:Datum:Temp:Feuchte:Taupunkt:
Aussen-T/F 76 18-07-2019 06:15:00 12.3 C 94 % 11.36 C
77 18-07-2019 06:20:00 12.4 C 94 % 11.46 C
78 18-07-2019 06:25:00 12.4 C 94 % 11.46 C
79 18-07-2019 06:30:00 12.4 C 94 % 11.46 C
80 18-07-2019 06:35:00 12.4 C 94 % 11.46 C
81 18-07-2019 06:40:00 12.5 C 95 % 11.72 C
82 18-07-2019 06:45:00 12.6 C 95 % 11.82 C
83 18-07-2019 06:50:00 12.6 C 95 % 11.82 C
84 18-07-2019 06:55:00 12.7 C 95 % 11.92 C
85 18-07-2019 07:00:00 12.8 C 95 % 12.02 C
86 18-07-2019 07:05:00 12.9 C 95 % 12.12 C
87 18-07-2019 07:10:00 13 C 95 % 12.22 C
88 18-07-2019 07:15:00 13.1 C 95 % 12.32 C
89 18-07-2019 07:20:00 13.2 C 95 % 12.42 C
90 18-07-2019 07:25:00 13.2 C 95 % 12.42 C
91 18-07-2019 07:30:00 13.3 C 95 % 12.52 C
92 18-07-2019 07:35:00 13.4 C 95 % 12.62 C
93 18-07-2019 07:40:00 13.4 C 95 % 12.62 C
94 18-07-2019 07:45:00 13.5 C 95 % 12.72 C
95 18-07-2019 07:50:00 13.6 C 95 % 12.81 C
96 18-07-2019 07:55:00 13.7 C 95 % 12.91 C
97 18-07-2019 08:00:00 13.7 C 94 % 12.75 C
98 18-07-2019 08:05:00 13.8 C 94 % 12.85 C
99 18-07-2019 08:10:00 13.9 C 94 % 12.95 C
100 18-07-2019 08:15:00 14 C 94 % 13.05 C
Sensor: Nr:Datum:Temp:Feuchte:Taupunkt:
Aussen-T/F 101 18-07-2019 08:20:00 14.1 C 94 % 13.15 C
102 18-07-2019 08:25:00 14.3 C 94 % 13.35 C
103 18-07-2019 08:30:00 14.3 C 93 % 13.18 C
104 18-07-2019 08:35:00 14.4 C 93 % 13.28 C
105 18-07-2019 08:40:00 14.6 C 92 % 13.32 C
106 18-07-2019 08:45:00 14.7 C 92 % 13.41 C
107 18-07-2019 08:50:00 14.9 C 92 % 13.61 C
108 18-07-2019 08:55:00 15.1 C 92 % 13.81 C
109 18-07-2019 09:00:00 15.2 C 92 % 13.91 C
110 18-07-2019 09:05:00 15.4 C 92 % 14.11 C
111 18-07-2019 09:10:00 15.6 C 91 % 14.14 C
112 18-07-2019 09:15:00 15.7 C 91 % 14.24 C
113 18-07-2019 09:20:00 15.9 C 91 % 14.43 C
114 18-07-2019 09:25:00 16.1 C 89 % 14.29 C
115 18-07-2019 09:30:00 16.3 C 88 % 14.31 C
116 18-07-2019 09:35:00 16.4 C 88 % 14.41 C
117 18-07-2019 09:40:00 16.7 C 88 % 14.7 C
118 18-07-2019 09:45:00 16.9 C 86 % 14.54 C
119 18-07-2019 09:50:00 17.1 C 86 % 14.74 C
120 18-07-2019 09:55:00 17.3 C 87 % 15.12 C
121 18-07-2019 10:00:00 17.4 C 87 % 15.21 C
122 18-07-2019 10:05:00 17.6 C 85 % 15.05 C
123 18-07-2019 10:10:00 17.7 C 85 % 15.15 C
124 18-07-2019 10:15:00 17.9 C 85 % 15.34 C
125 18-07-2019 10:20:00 18.2 C 84 % 15.45 C
Sensor: Nr:Datum:Temp:Feuchte:Taupunkt:
Aussen-T/F 126 18-07-2019 10:25:00 18.5 C 83 % 15.56 C
127 18-07-2019 10:30:00 18.9 C 80 % 15.38 C
128 18-07-2019 10:35:00 19.3 C 80 % 15.76 C
129 18-07-2019 10:40:00 19.7 C 78 % 15.76 C
130 18-07-2019 10:45:00 20 C 77 % 15.85 C
131 18-07-2019 10:50:00 20.3 C 77 % 16.14 C
132 18-07-2019 10:55:00 20.5 C 75 % 15.92 C
133 18-07-2019 11:00:00 20.7 C 76 % 16.32 C
134 18-07-2019 11:05:00 20.8 C 74 % 16 C
135 18-07-2019 11:10:00 20.9 C 73 % 15.88 C
136 18-07-2019 11:15:00 21.1 C 68 % 14.97 C
137 18-07-2019 11:20:00 21.3 C 64 % 14.22 C
138 18-07-2019 11:25:00 21.7 C 62 % 14.1 C
139 18-07-2019 11:30:00 22.1 C 62 % 14.48 C
140 18-07-2019 11:35:00 22.3 C 60 % 14.16 C
141 18-07-2019 11:40:00 22.6 C 60 % 14.44 C
142 18-07-2019 11:45:00 22.9 C 58 % 14.2 C
143 18-07-2019 11:50:00 23.1 C 58 % 14.39 C
144 18-07-2019 11:55:00 23.2 C 58 % 14.48 C
145 18-07-2019 12:00:00 23.3 C 59 % 14.84 C
146 18-07-2019 12:05:00 23.4 C 57 % 14.4 C
147 18-07-2019 12:10:00 23.6 C 55 % 14.03 C
148 18-07-2019 12:15:00 23.8 C 56 % 14.5 C
149 18-07-2019 12:20:00 23.9 C 54 % 14.03 C
150 18-07-2019 12:25:00 24.3 C 54 % 14.4 C
Sensor: Nr:Datum:Temp:Feuchte:Taupunkt:
Aussen-T/F 151 18-07-2019 12:30:00 24.5 C 54 % 14.58 C
152 18-07-2019 12:35:00 24.7 C 53 % 14.48 C
153 18-07-2019 12:40:00 24.7 C 52 % 14.19 C
154 18-07-2019 12:45:00 24.7 C 52 % 14.19 C
155 18-07-2019 12:50:00 24.7 C 54 % 14.77 C
156 18-07-2019 12:55:00 24.6 C 50 % 13.49 C
157 18-07-2019 13:00:00 24.8 C 51 % 13.98 C
158 18-07-2019 13:05:00 24.9 C 50 % 13.77 C
159 18-07-2019 13:10:00 25.1 C 50 % 13.95 C
160 18-07-2019 13:15:00 25.2 C 50 % 14.04 C
161 18-07-2019 13:20:00 25.4 C 50 % 14.22 C
162 18-07-2019 13:25:00 25.6 C 49 % 14.1 C
163 18-07-2019 13:30:00 25.8 C 49 % 14.28 C
164 18-07-2019 13:35:00 26.1 C 50 % 14.87 C
165 18-07-2019 13:40:00 26.3 C 50 % 15.05 C
166 18-07-2019 13:45:00 26.3 C 47 % 14.09 C
167 18-07-2019 13:50:00 26.4 C 49 % 14.83 C
168 18-07-2019 13:55:00 26.7 C 44 % 13.44 C
169 18-07-2019 14:00:00 26.8 C 42 % 12.82 C
170 18-07-2019 14:05:00 27 C 45 % 14.06 C
171 18-07-2019 14:10:00 27.3 C 42 % 13.27 C
172 18-07-2019 14:15:00 27.4 C 41 % 12.99 C
173 18-07-2019 14:20:00 27.6 C 40 % 12.79 C
174 18-07-2019 14:25:00 27.5 C 39 % 12.31 C
175 18-07-2019 14:30:00 27.3 C 41 % 12.9 C
Sensor: Nr:Datum:Temp:Feuchte:Taupunkt:
Aussen-T/F 176 18-07-2019 14:35:00 27.2 C 42 % 13.18 C
177 18-07-2019 14:40:00 27.2 C 40 % 12.43 C
178 18-07-2019 14:45:00 27.2 C 42 % 13.18 C
179 18-07-2019 14:50:00 27.1 C 39 % 11.96 C
180 18-07-2019 14:55:00 26.9 C 40 % 12.16 C
181 18-07-2019 15:00:00 26.8 C 39 % 11.69 C
182 18-07-2019 15:05:00 26.8 C 45 % 13.87 C
183 18-07-2019 15:10:00 26.6 C 42 % 12.64 C
184 18-07-2019 15:15:00 26.3 C 44 % 13.08 C
185 18-07-2019 15:20:00 26.1 C 44 % 12.9 C
186 18-07-2019 15:25:00 25.9 C 48 % 14.05 C
187 18-07-2019 15:30:00 25.8 C 50 % 14.59 C
188 18-07-2019 15:35:00 25.7 C 43 % 12.19 C
189 18-07-2019 15:40:00 25.7 C 44 % 12.54 C
190 18-07-2019 15:45:00 25.6 C 43 % 12.1 C
191 18-07-2019 15:50:00 25.6 C 45 % 12.79 C
192 18-07-2019 15:55:00 25.6 C 52 % 15.02 C
193 18-07-2019 16:00:00 25.5 C 52 % 14.92 C
194 18-07-2019 16:05:00 25.2 C 51 % 14.35 C
195 18-07-2019 16:10:00 24.9 C 53 % 14.66 C
196 18-07-2019 16:15:00 24.7 C 55 % 15.05 C
197 18-07-2019 16:20:00 24.5 C 57 % 15.42 C
198 18-07-2019 16:25:00 24.6 C 51 % 13.79 C
199 18-07-2019 16:30:00 24.6 C 50 % 13.49 C
200 18-07-2019 16:35:00 24.6 C 50 % 13.49 C
Sensor: Nr:Datum:Temp:Feuchte:Taupunkt:
Aussen-T/F 201 18-07-2019 16:40:00 24.5 C 52 % 14 C
202 18-07-2019 16:45:00 24.6 C 52 % 14.09 C
203 18-07-2019 16:50:00 24.7 C 51 % 13.89 C
204 18-07-2019 16:55:00 24.8 C 55 % 15.15 C
205 18-07-2019 17:00:00 24.9 C 50 % 13.77 C
206 18-07-2019 17:05:00 24.9 C 50 % 13.77 C
207 18-07-2019 17:10:00 24.9 C 53 % 14.66 C
208 18-07-2019 17:15:00 24.8 C 54 % 14.86 C
209 18-07-2019 17:20:00 24.8 C 57 % 15.7 C
210 18-07-2019 17:25:00 24.8 C 55 % 15.15 C
211 18-07-2019 17:30:00 24.8 C 55 % 15.15 C
212 18-07-2019 17:35:00 24.9 C 57 % 15.8 C
213 18-07-2019 17:40:00 24.9 C 58 % 16.07 C
214 18-07-2019 17:45:00 24.8 C 59 % 16.24 C
215 18-07-2019 17:50:00 24.8 C 62 % 17.02 C
216 18-07-2019 17:55:00 24.8 C 63 % 17.28 C
217 18-07-2019 18:00:00 24.7 C 56 % 15.33 C
218 18-07-2019 18:05:00 24.8 C 61 % 16.77 C
219 18-07-2019 18:10:00 24.8 C 60 % 16.51 C
220 18-07-2019 18:15:00 24.8 C 52 % 14.28 C
221 18-07-2019 18:20:00 24.7 C 54 % 14.77 C
222 18-07-2019 18:25:00 24.7 C 51 % 13.89 C
223 18-07-2019 18:30:00 24.6 C 66 % 17.83 C
224 18-07-2019 18:35:00 24.2 C 66 % 17.45 C
225 18-07-2019 18:40:00 23.5 C 70 % 17.71 C
Sensor: Nr:Datum:Temp:Feuchte:Taupunkt:
Aussen-T/F 226 18-07-2019 18:45:00 22.8 C 71 % 17.27 C
227 18-07-2019 18:50:00 22.3 C 73 % 17.23 C
228 18-07-2019 18:55:00 21.8 C 73 % 16.75 C
229 18-07-2019 19:00:00 21.6 C 74 % 16.77 C
230 18-07-2019 19:05:00 21.4 C 75 % 16.79 C
231 18-07-2019 19:10:00 21.3 C 76 % 16.9 C
232 18-07-2019 19:15:00 21.2 C 75 % 16.59 C
233 18-07-2019 19:20:00 21.2 C 76 % 16.8 C
234 18-07-2019 19:25:00 21.1 C 75 % 16.5 C
235 18-07-2019 19:30:00 21 C 75 % 16.4 C
236 18-07-2019 19:35:00 20.9 C 75 % 16.3 C
237 18-07-2019 19:40:00 20.9 C 74 % 16.09 C
238 18-07-2019 19:45:00 20.8 C 73 % 15.78 C
239 18-07-2019 19:50:00 20.7 C 72 % 15.47 C
240 18-07-2019 19:55:00 20.7 C 71 % 15.25 C
241 18-07-2019 20:00:00 20.7 C 72 % 15.47 C
242 18-07-2019 20:05:00 20.7 C 71 % 15.25 C
243 18-07-2019 20:10:00 20.8 C 72 % 15.57 C
244 18-07-2019 20:15:00 20.8 C 71 % 15.35 C
245 18-07-2019 20:20:00 20.9 C 70 % 15.23 C
246 18-07-2019 20:25:00 21 C 70 % 15.32 C
247 18-07-2019 20:30:00 21 C 69 % 15.1 C
248 18-07-2019 20:35:00 21 C 69 % 15.1 C
249 18-07-2019 20:40:00 21 C 69 % 15.1 C
250 18-07-2019 20:45:00 20.9 C 69 % 15 C
Sensor: Nr:Datum:Temp:Feuchte:Taupunkt:
Aussen-T/F 251 18-07-2019 20:50:00 20.8 C 69 % 14.91 C
252 18-07-2019 20:55:00 20.8 C 69 % 14.91 C
253 18-07-2019 21:00:00 20.8 C 68 % 14.68 C
254 18-07-2019 21:05:00 20.7 C 68 % 14.58 C
255 18-07-2019 21:10:00 20.6 C 69 % 14.71 C
256 18-07-2019 21:15:00 20.6 C 68 % 14.49 C
257 18-07-2019 21:20:00 20.4 C 69 % 14.52 C
258 18-07-2019 21:25:00 20.4 C 69 % 14.52 C
259 18-07-2019 21:30:00 20.3 C 69 % 14.43 C
260 18-07-2019 21:35:00 20.2 C 69 % 14.33 C
261 18-07-2019 21:40:00 20.2 C 70 % 14.56 C
262 18-07-2019 21:45:00 20.1 C 70 % 14.46 C
263 18-07-2019 21:50:00 20 C 70 % 14.36 C
264 18-07-2019 21:55:00 19.9 C 70 % 14.27 C
265 18-07-2019 22:00:00 19.8 C 70 % 14.17 C
266 18-07-2019 22:05:00 19.8 C 71 % 14.39 C
267 18-07-2019 22:10:00 19.8 C 71 % 14.39 C
268 18-07-2019 22:15:00 19.7 C 71 % 14.3 C
269 18-07-2019 22:20:00 19.7 C 71 % 14.3 C
270 18-07-2019 22:25:00 19.7 C 72 % 14.51 C
271 18-07-2019 22:30:00 19.7 C 73 % 14.73 C
272 18-07-2019 22:35:00 19.7 C 73 % 14.73 C
273 18-07-2019 22:40:00 19.6 C 72 % 14.42 C
274 18-07-2019 22:45:00 19.6 C 72 % 14.42 C
275 18-07-2019 22:50:00 19.5 C 72 % 14.32 C
Sensor: Nr:Datum:Temp:Feuchte:Taupunkt:
Aussen-T/F 276 18-07-2019 22:55:00 19.4 C 72 % 14.22 C
277 18-07-2019 23:00:00 19.4 C 72 % 14.22 C
278 18-07-2019 23:05:00 19.4 C 72 % 14.22 C
279 18-07-2019 23:10:00 19.4 C 72 % 14.22 C
280 18-07-2019 23:15:00 19.3 C 72 % 14.13 C
281 18-07-2019 23:20:00 19.3 C 73 % 14.34 C
282 18-07-2019 23:25:00 19.3 C 73 % 14.34 C
283 18-07-2019 23:30:00 19.3 C 73 % 14.34 C
284 18-07-2019 23:35:00 19.3 C 73 % 14.34 C
285 18-07-2019 23:40:00 19.3 C 72 % 14.13 C
286 18-07-2019 23:45:00 19.4 C 73 % 14.44 C
287 18-07-2019 23:50:00 19.4 C 73 % 14.44 C
288 18-07-2019 23:55:00 19.5 C 72 % 14.32 C

Legende:
   Min
   Max


Maximal/Minimal-Werte vom 18.07.2019 - 18.07.2019

Sensor Min Max Avg
Temp
(Aussen-T/F)
12.3 °C
18-07-2019  06:15:00
27.6 °C
18-07-2019  14:20:00
19.07 °C
Feuchte
(Aussen-T/F)
39 %
18-07-2019  14:25:00
95 %
18-07-2019  06:40:00
74.14 %
Taupunkt
(Aussen-T/F)
11.36 C
18-07-2019  06:15:00
17.83 C
18-07-2019  18:30:00
13.74 C

Die Daten stammen von einer Davis Vantage Pro 2 Wetter-Station und werden unter Linux mit der Software wview2wettercgi und aufbereitet. Alle Angaben erfolgen ohne Gewähr für ihre Vollständigkeit oder Richtigkeit.
Kontakt: Rainer Krienke krienke@uni-koblenz.de . Meine Webseiten an der Uni Koblenz oder privat.
Version: $Revision: 0.78 $